KLDM/LDM METAR and TAF weather

Enter ICAO airport designator
Station Type Date Time Source
KLDM METAR 2021/05/11 23:35 UTC NOAA

KLDM 112335Z AUTO 35006KT 10SM CLR 11/M02 A3034 RMK AO2 T01051025


Station Type Date Time Source
KLDM Decoded METAR 2021/05/11 23:35 UTC NOAA

Ludington, Mason County Airport, MI, United States (KLDM) 43-58N 86-24W
May 11, 2021 - 07:35 PM EDT / 2021.05.11 2335 UTC
Wind: from the N (350 degrees) at 7 MPH (6 KT):0
Visibility: 10 mile(s):0
Sky conditions: clear
Temperature: 50.9 F (10.5 C)
Dew Point: 27.5 F (-2.5 C)
Relative Humidity: 40%
Pressure (altimeter): 30.34 in. Hg (1027 hPa)
ob: KLDM 112335Z AUTO 35006KT 10SM CLR 11/M02 A3034 RMK AO2 T01051025
cycle: 23

Station Type Date Time Source
KLDM TAF UTC NOAA

Error!

Example: see airport list